Terminal Aerodrome Forecast
Issued by NWS

Home | Current Version | Previous Version | Text Only | Print | Product List | Glossary On
Versions: 1 2 3 4 5 6 7 8 9 10 11 12 13 14 15 16 17
000
FTUS41 KBOX 282322
TAFFMH
TAF
KFMH 282322Z 2900/2924 23010KT 3SM BR BKN008
     FM290500 23005KT 1 1/2SM BR BKN005
     FM291200 21007KT 3/4SM BR VCSH BKN005
     FM291400 22010KT P6SM SCT008 BKN040
     FM291800 24014G21KT P6SM BKN250=

USA.gov is the U.S. government's official web portal to all federal, state and local government web resources and services.